Time;durP1;ratioP1;P1;durP2;ratioP2;P2;SDS_P1;SDS_P2;PMS_P1;PMS_P2;Temp;Humidity;BMP_temperature;BMP_pressure;BME280_temperature;BME280_humidity;BME280_pressure;Samples;Min_cycle;Max_cycle;Signal;HPM_P1;HPM_P2
2021/10/04 00:01:11;;;;;;;12.93;6.80;;;;;;;15.24;55.61;100788.47;5128455;27;20200;-63
2021/10/04 00:03:39;;;;;;;11.68;7.22;;;;;;;15.21;55.66;100783.34;5127994;27;20114;-62
2021/10/04 00:06:05;;;;;;;17.08;6.22;;;;;;;15.22;55.68;100798.56;5128493;27;20023;-62
2021/10/04 00:08:30;;;;;;;12.48;6.25;;;;;;;15.21;55.54;100790.59;5128100;27;20058;-62
2021/10/04 00:10:56;;;;;;;11.63;6.75;;;;;;;15.16;55.70;100782.13;5128130;27;20069;-62
2021/10/04 00:13:21;;;;;;;11.13;7.05;;;;;;;15.17;55.61;100775.72;5128432;27;20034;-62
2021/10/04 00:15:47;;;;;;;14.18;6.95;;;;;;;15.13;55.82;100771.63;5128229;27;20031;-62
2021/10/04 00:18:12;;;;;;;10.43;6.68;;;;;;;15.11;55.97;100782.56;5128076;28;20031;-62
2021/10/04 00:20:38;;;;;;;9.18;6.75;;;;;;;15.06;55.78;100784.03;5128074;27;20027;-62
2021/10/04 00:23:04;;;;;;;13.35;6.85;;;;;;;15.06;56.13;100779.47;5126919;27;20015;-62
2021/10/04 00:25:30;;;;;;;11.88;6.78;;;;;;;15.03;56.06;100778.94;5127963;27;20030;-62
2021/10/04 00:27:55;;;;;;;10.50;6.68;;;;;;;15.02;56.10;100778.06;5128173;27;20031;-62
2021/10/04 00:30:21;;;;;;;9.98;6.75;;;;;;;15.01;56.17;100786.34;5126777;28;20147;-62
2021/10/04 00:32:50;;;;;;;11.07;7.07;;;;;;;14.98;56.44;100771.28;5127895;27;20035;-62
2021/10/04 00:35:17;;;;;;;11.38;6.50;;;;;;;14.97;56.21;100772.31;5128207;27;20505;-63
2021/10/04 00:37:44;;;;;;;13.55;6.88;;;;;;;14.95;56.51;100777.00;5127757;27;20062;-62
2021/10/04 00:40:13;;;;;;;14.68;6.78;;;;;;;14.92;56.37;100766.50;5127954;27;20026;-62
2021/10/04 00:42:39;;;;;;;9.48;6.47;;;;;;;14.91;56.73;100772.91;5128001;27;20027;-62
2021/10/04 00:45:06;;;;;;;12.70;6.82;;;;;;;14.88;56.66;100767.78;5127977;27;20030;-62
2021/10/04 00:47:32;;;;;;;9.63;6.10;;;;;;;14.87;56.41;100778.75;5126402;28;20031;-62
2021/10/04 00:49:58;;;;;;;14.88;7.03;;;;;;;14.87;56.53;100776.06;5127830;27;20110;-62
2021/10/04 00:52:24;;;;;;;11.70;6.75;;;;;;;14.82;56.56;100771.09;5128206;27;20604;-62
2021/10/04 00:54:49;;;;;;;15.95;7.63;;;;;;;14.80;57.03;100764.16;5127438;27;20493;-62
2021/10/04 00:57:14;;;;;;;10.77;6.82;;;;;;;14.76;56.85;100760.88;5127755;27;20505;-62
2021/10/04 00:59:40;;;;;;;10.10;6.85;;;;;;;14.75;56.82;100761.91;5127624;27;20031;-62
2021/10/04 01:02:06;;;;;;;11.98;6.50;;;;;;;14.73;57.06;100766.59;5130443;27;20054;-62
2021/10/04 01:04:32;;;;;;;9.60;6.95;;;;;;;14.68;57.25;100763.50;5131393;27;20115;-62
2021/10/04 01:06:58;;;;;;;14.13;7.55;;;;;;;14.62;57.61;100747.91;5130580;27;20140;-62
2021/10/04 01:09:25;;;;;;;13.95;7.28;;;;;;;14.64;57.29;100762.09;5131936;27;20015;-62
2021/10/04 01:11:55;;;;;;;14.15;7.28;;;;;;;14.57;57.22;100752.88;5131003;27;20109;-62
2021/10/04 01:14:20;;;;;;;10.25;7.03;;;;;;;14.55;57.46;100763.00;5131551;27;20435;-62
2021/10/04 01:16:46;;;;;;;11.38;6.75;;;;;;;14.56;57.42;100761.13;5131275;27;20054;-62
2021/10/04 01:19:12;;;;;;;9.80;7.00;;;;;;;14.55;57.54;100767.53;5131296;27;20216;-62
2021/10/04 01:21:38;;;;;;;10.68;6.78;;;;;;;14.51;57.69;100758.06;5129804;27;20487;-62
2021/10/04 01:24:05;;;;;;;11.10;7.05;;;;;;;14.50;57.88;100762.59;5131463;27;20019;-62
2021/10/04 01:26:31;;;;;;;14.48;7.00;;;;;;;14.46;57.93;100760.34;5129731;27;20027;-62
2021/10/04 01:28:56;;;;;;;9.40;6.85;;;;;;;14.41;58.06;100755.38;5131270;27;20035;-62
2021/10/04 01:31:22;;;;;;;14.60;6.55;;;;;;;14.41;58.07;100758.06;5131067;27;20474;-62
2021/10/04 01:33:53;;;;;;;16.77;7.78;;;;;;;14.39;58.36;100760.09;5131150;27;20035;-61
2021/10/04 01:36:20;;;;;;;10.80;6.68;;;;;;;14.39;58.33;100764.63;5131233;27;20034;-62
2021/10/04 01:38:45;;;;;;;12.63;7.68;;;;;;;14.32;58.63;100758.97;5128319;27;20041;-62
2021/10/04 01:41:11;;;;;;;15.57;7.30;;;;;;;14.32;58.31;100766.22;5130811;27;20143;-62
2021/10/04 01:43:36;;;;;;;11.63;6.80;;;;;;;14.30;58.80;100766.38;5129118;27;20081;-61
2021/10/04 01:46:02;;;;;;;16.50;7.18;;;;;;;14.30;58.47;100770.91;5130925;27;20030;-61
2021/10/04 01:48:27;;;;;;;10.80;7.03;;;;;;;14.25;58.78;100760.53;5131128;27;20566;-61
2021/10/04 01:50:53;;;;;;;13.65;7.28;;;;;;;14.25;58.80;100768.66;5130401;27;20028;-62
2021/10/04 01:53:18;;;;;;;11.23;6.75;;;;;;;14.20;58.76;100768.22;5130508;27;20045;-62
2021/10/04 01:55:44;;;;;;;9.75;7.45;;;;;;;14.20;59.04;100772.75;5130536;27;20325;-62
2021/10/04 01:58:09;;;;;;;10.85;6.68;;;;;;;14.15;59.46;100769.66;5130866;27;20069;-62
2021/10/04 02:00:36;;;;;;;14.68;7.70;;;;;;;14.13;59.51;100769.81;5129078;27;20363;-61
2021/10/04 02:03:02;;;;;;;12.30;7.40;;;;;;;14.10;59.51;100772.78;5130851;27;20019;-62
2021/10/04 02:05:29;;;;;;;11.35;7.45;;;;;;;14.07;59.72;100772.22;5129592;27;20019;-62
2021/10/04 02:07:55;;;;;;;14.27;7.65;;;;;;;14.06;60.07;100775.94;5130067;27;20164;-62
2021/10/04 02:10:23;;;;;;;13.60;7.60;;;;;;;14.05;59.64;100779.59;5130420;27;20038;-62
2021/10/04 02:12:49;;;;;;;15.88;7.25;;;;;;;14.02;59.94;100783.44;5130055;27;20063;-62
2021/10/04 02:15:15;;;;;;;11.52;6.78;;;;;;;14.03;59.76;100782.47;5130351;27;20434;-62
2021/10/04 02:17:41;;;;;;;12.25;7.20;;;;;;;13.99;60.08;100791.81;5130685;27;20473;-62
2021/10/04 02:20:10;;;;;;;16.20;7.43;;;;;;;13.95;60.07;100786.84;5130123;27;20043;-61
2021/10/04 02:22:36;;;;;;;12.50;8.30;;;;;;;13.91;60.62;100782.75;5129729;27;20031;-61
2021/10/04 02:25:03;;;;;;;14.75;8.23;;;;;;;13.84;61.09;100781.63;5130455;27;20027;-62
2021/10/04 02:27:28;;;;;;;13.07;8.55;;;;;;;13.81;61.12;100787.31;5130455;27;20079;-62
2021/10/04 02:29:53;;;;;;;19.25;8.43;;;;;;;13.76;61.91;100781.53;5129795;27;20027;-62
2021/10/04 02:32:19;;;;;;;11.18;7.55;;;;;;;13.73;62.38;100787.19;5129877;27;20019;-62
2021/10/04 02:34:44;;;;;;;16.40;7.75;;;;;;;13.69;62.56;100792.00;5128595;27;20023;-62
2021/10/04 02:37:10;;;;;;;12.15;8.10;;;;;;;13.69;62.16;100795.56;5130142;27;20029;-62
2021/10/04 02:39:35;;;;;;;11.07;7.90;;;;;;;13.63;62.95;100789.88;5129668;27;20023;-62
2021/10/04 02:42:01;;;;;;;13.95;7.93;;;;;;;13.57;62.87;100785.06;5130124;27;20033;-62
2021/10/04 02:44:26;;;;;;;15.98;8.13;;;;;;;13.55;63.27;100785.19;5129764;27;20083;-61
2021/10/04 02:46:52;;;;;;;14.23;8.63;;;;;;;13.51;63.71;100782.91;5129699;27;20415;-61
2021/10/04 02:49:18;;;;;;;14.77;8.45;;;;;;;13.47;63.12;100773.44;5130044;27;20037;-62
2021/10/04 02:51:43;;;;;;;12.15;7.80;;;;;;;13.46;62.79;100775.28;5129232;27;20084;-62
2021/10/04 02:54:09;;;;;;;14.25;8.40;;;;;;;13.44;62.37;100779.97;5128177;27;20038;-61
2021/10/04 02:56:34;;;;;;;14.52;9.35;;;;;;;13.40;62.35;100777.69;5129681;27;20029;-61
2021/10/04 02:59:00;;;;;;;16.98;11.27;;;;;;;13.39;62.76;100784.91;5129941;27;20042;-61
2021/10/04 03:01:25;;;;;;;21.30;12.30;;;;;;;13.37;62.63;100786.91;5129354;27;20023;-62
2021/10/04 03:03:51;;;;;;;18.02;10.85;;;;;;;13.37;62.83;100788.75;5129364;27;20128;-62
2021/10/04 03:06:16;;;;;;;15.90;8.55;;;;;;;13.36;62.79;100781.66;5129145;27;20034;-61
2021/10/04 03:08:41;;;;;;;11.00;7.65;;;;;;;13.38;63.02;100790.44;5128953;27;20026;-62
2021/10/04 03:11:07;;;;;;;21.83;9.00;;;;;;;13.37;62.21;100788.75;5129028;27;20031;-61
2021/10/04 03:13:33;;;;;;;14.07;8.60;;;;;;;13.35;62.78;100786.19;5129032;27;20057;-61
2021/10/04 03:15:58;;;;;;;10.13;7.80;;;;;;;13.38;62.54;100783.22;5129318;27;20531;-62
2021/10/04 03:18:24;;;;;;;20.17;8.77;;;;;;;13.36;62.44;100787.91;5127730;27;20043;-61
2021/10/04 03:20:49;;;;;;;16.35;8.35;;;;;;;13.37;62.50;100788.75;5127367;27;20371;-62
2021/10/04 03:23:15;;;;;;;13.85;7.80;;;;;;;13.34;62.79;100786.31;5127171;27;20533;-61
2021/10/04 03:25:40;;;;;;;12.38;8.27;;;;;;;13.32;62.58;100785.63;5128588;27;20026;-62
2021/10/04 03:28:06;;;;;;;10.65;8.35;;;;;;;13.32;62.38;100785.63;5128923;27;20034;-62
2021/10/04 03:30:33;;;;;;;11.85;8.00;;;;;;;13.34;62.39;100789.03;5128988;27;20046;-61
2021/10/04 03:33:03;;;;;;;10.77;8.35;;;;;;;13.32;62.53;100785.63;5129047;27;20474;-61
2021/10/04 03:35:29;;;;;;;15.30;7.72;;;;;;;13.31;62.22;100786.59;5129108;27;20033;-62
2021/10/04 03:37:54;;;;;;;15.55;8.55;;;;;;;13.30;62.78;100777.69;5128556;27;20027;-61
2021/10/04 03:40:20;;;;;;;12.05;8.23;;;;;;;13.32;62.36;100793.72;5127459;27;20039;-62
2021/10/04 03:42:46;;;;;;;12.82;8.65;;;;;;;13.27;62.69;100788.75;5128387;27;20294;-61
2021/10/04 03:45:12;;;;;;;17.65;9.18;;;;;;;13.23;62.75;100779.22;5128612;27;20508;-61
2021/10/04 03:47:39;;;;;;;15.00;9.07;;;;;;;13.28;62.46;100785.06;5128176;27;20031;-62
2021/10/04 03:50:06;;;;;;;11.73;8.35;;;;;;;13.27;62.88;100782.50;5128498;27;20035;-61
2021/10/04 03:52:32;;;;;;;13.48;8.85;;;;;;;13.22;63.05;100774.84;5127532;27;20028;-62
2021/10/04 03:54:58;;;;;;;13.10;8.55;;;;;;;13.23;63.13;100773.00;5128432;27;20035;-62
2021/10/04 03:57:23;;;;;;;14.38;8.60;;;;;;;13.23;62.97;100781.09;5128756;27;20029;-61
2021/10/04 03:59:49;;;;;;;18.30;9.40;;;;;;;13.21;63.02;100778.53;5128130;27;20042;-62
2021/10/04 04:02:14;;;;;;;14.82;9.20;;;;;;;13.22;63.09;100787.47;5128411;27;20019;-62
2021/10/04 04:04:40;;;;;;;18.45;9.43;;;;;;;13.23;63.33;100784.63;5128044;27;20058;-62
2021/10/04 04:07:07;;;;;;;19.52;9.93;;;;;;;13.22;63.61;100790.16;5128421;27;20027;-62
2021/10/04 04:09:33;;;;;;;18.50;9.63;;;;;;;13.22;63.49;100798.25;5128259;27;20030;-61
2021/10/04 04:11:58;;;;;;;15.95;9.52;;;;;;;13.21;63.76;100804.59;5126867;27;20027;-62
2021/10/04 04:14:24;;;;;;;18.92;9.80;;;;;;;13.16;64.03;100796.09;5128393;27;20023;-61
2021/10/04 04:16:49;;;;;;;20.60;10.85;;;;;;;13.11;65.12;100804.59;5128260;27;20497;-62
2021/10/04 04:19:14;;;;;;;18.25;9.63;;;;;;;13.05;65.15;100790.81;5127788;27;20043;-62
2021/10/04 04:21:42;;;;;;;17.02;9.80;;;;;;;13.06;65.74;100803.31;5127918;27;20106;-61
2021/10/04 04:24:08;;;;;;;13.27;9.68;;;;;;;13.00;65.50;100795.78;5127258;27;20027;-61
2021/10/04 04:26:34;;;;;;;18.20;10.57;;;;;;;12.97;65.20;100796.88;5126385;27;20408;-61
2021/10/04 04:28:59;;;;;;;13.25;9.93;;;;;;;12.99;65.12;100802.16;5126481;28;20035;-61
2021/10/04 04:31:25;;;;;;;20.10;10.20;;;;;;;12.97;64.50;100798.72;5127487;27;20034;-62
2021/10/04 04:33:50;;;;;;;20.30;11.13;;;;;;;12.95;64.92;100803.38;5126586;27;20056;-61
2021/10/04 04:36:16;;;;;;;20.10;9.65;;;;;;;12.93;64.84;100806.22;5131001;27;20030;-62
2021/10/04 04:38:41;;;;;;;16.35;10.20;;;;;;;12.91;65.33;100804.66;5131756;27;20091;-61
2021/10/04 04:41:06;;;;;;;17.48;10.43;;;;;;;12.89;64.79;100802.09;5130669;27;20030;-62
2021/10/04 04:43:32;;;;;;;18.42;11.02;;;;;;;12.86;64.89;100809.59;5132469;27;20019;-62
2021/10/04 04:45:57;;;;;;;16.33;10.90;;;;;;;12.88;65.31;100804.94;5132430;27;20046;-62
2021/10/04 04:48:23;;;;;;;17.08;10.00;;;;;;;12.86;64.98;100815.84;5132215;27;20027;-62
2021/10/04 04:50:49;;;;;;;17.98;10.23;;;;;;;12.88;65.07;100810.31;5131691;27;20034;-62
2021/10/04 04:53:15;;;;;;;19.85;11.13;;;;;;;12.90;64.87;100811.88;5132266;27;20467;-63
2021/10/04 04:55:40;;;;;;;23.35;10.85;;;;;;;12.90;65.28;100817.25;5131644;27;20030;-62
2021/10/04 04:58:06;;;;;;;17.88;10.38;;;;;;;12.89;65.04;100814.69;5132100;27;20027;-62
2021/10/04 05:00:32;;;;;;;20.15;10.68;;;;;;;12.87;64.77;100817.53;5132182;27;20030;-62
2021/10/04 05:02:57;;;;;;;17.85;10.57;;;;;;;12.90;65.00;100821.81;5131670;27;20273;-62
2021/10/04 05:05:23;;;;;;;16.90;10.75;;;;;;;12.86;65.05;100821.22;5131842;27;20553;-62
2021/10/04 05:07:48;;;;;;;17.85;11.07;;;;;;;12.89;64.98;100828.16;5131819;27;20023;-62
2021/10/04 05:10:14;;;;;;;17.17;11.05;;;;;;;12.90;65.71;100835.28;5131821;27;20098;-61
2021/10/04 05:12:39;;;;;;;17.30;10.27;;;;;;;12.88;65.57;100834.53;5131438;27;20047;-62
2021/10/04 05:15:06;;;;;;;22.67;12.02;;;;;;;12.87;65.41;100836.38;5131764;27;20398;-62
2021/10/04 05:17:31;;;;;;;16.98;10.80;;;;;;;12.86;65.87;100837.38;5132287;27;20139;-61
2021/10/04 05:19:56;;;;;;;21.70;11.15;;;;;;;12.87;65.13;100828.31;5129685;27;20554;-62
2021/10/04 05:22:22;;;;;;;19.20;10.73;;;;;;;12.89;65.71;100834.41;5131322;27;20038;-62
2021/10/04 05:24:47;;;;;;;26.27;11.40;;;;;;;12.88;65.70;100832.72;5131322;27;20058;-62
2021/10/04 05:27:13;;;;;;;14.43;10.63;;;;;;;12.89;65.32;100829.03;5132091;27;20023;-62
2021/10/04 05:29:38;;;;;;;17.77;10.75;;;;;;;12.90;65.26;100828.03;5131350;27;20023;-62
2021/10/04 05:32:05;;;;;;;16.85;11.05;;;;;;;12.92;65.19;100827.91;5131364;27;20482;-61
2021/10/04 05:34:31;;;;;;;18.17;11.07;;;;;;;12.94;64.95;100828.63;5131345;27;20562;-62
2021/10/04 05:36:56;;;;;;;14.25;9.90;;;;;;;12.98;65.09;100828.22;5129849;27;20139;-62
2021/10/04 05:39:22;;;;;;;17.08;10.45;;;;;;;13.02;64.36;100832.34;5129846;27;20066;-61
2021/10/04 05:41:47;;;;;;;17.50;9.80;;;;;;;13.03;64.79;100833.22;5130823;27;20027;-62
2021/10/04 05:44:13;;;;;;;19.17;9.90;;;;;;;13.09;64.20;100836.19;5131564;27;20092;-61
2021/10/04 05:46:38;;;;;;;12.82;9.13;;;;;;;13.11;64.34;100834.22;5128622;27;20031;-62
2021/10/04 05:49:04;;;;;;;15.15;9.95;;;;;;;13.15;64.34;100834.78;5130013;27;20136;-62
2021/10/04 05:51:29;;;;;;;15.25;9.70;;;;;;;13.18;64.18;100834.50;5131532;27;20030;-62
2021/10/04 05:53:55;;;;;;;15.70;10.13;;;;;;;13.20;64.00;100830.72;5130575;27;20498;-61
2021/10/04 05:56:20;;;;;;;14.40;10.05;;;;;;;13.27;64.73;100848.03;5129852;27;20454;-61
2021/10/04 05:58:46;;;;;;;14.68;9.43;;;;;;;13.35;64.31;100831.16;5130691;27;20027;-61
2021/10/04 06:01:11;;;;;;;18.48;10.02;;;;;;;13.36;64.38;100833.72;5130841;27;20478;-61
2021/10/04 06:03:37;;;;;;;14.70;8.68;;;;;;;13.40;64.54;100831.56;5124016;27;20024;-61
2021/10/04 06:06:02;;;;;;;19.90;9.48;;;;;;;13.43;64.48;100837.56;5127998;27;20022;-61
2021/10/04 06:08:28;;;;;;;20.63;10.40;;;;;;;13.46;64.78;100833.72;5128224;27;20470;-61
2021/10/04 06:10:53;;;;;;;16.88;9.75;;;;;;;13.53;64.07;100842.94;5130602;27;20031;-62
2021/10/04 06:13:19;;;;;;;13.75;9.13;;;;;;;13.57;63.92;100844.34;5130544;27;20439;-61
2021/10/04 06:15:45;;;;;;;12.88;8.60;;;;;;;13.63;63.71;100846.50;5127156;27;20552;-61
2021/10/04 06:18:12;;;;;;;13.32;8.82;;;;;;;13.66;63.40;100838.13;5128484;27;20114;-62
2021/10/04 06:20:39;;;;;;;15.13;9.18;;;;;;;13.77;63.27;100853.31;5128650;27;20034;-61
2021/10/04 06:23:05;;;;;;;20.58;9.60;;;;;;;13.76;62.66;100836.28;5130431;27;20015;-62
2021/10/04 06:25:31;;;;;;;15.27;9.00;;;;;;;13.96;61.96;100851.44;5130653;27;20041;-62
2021/10/04 06:27:56;;;;;;;17.05;9.27;;;;;;;14.03;62.04;100846.34;5129854;27;20035;-62
2021/10/04 06:30:22;;;;;;;12.10;7.97;;;;;;;14.12;61.83;100857.09;5130164;27;20042;-62
2021/10/04 06:32:48;;;;;;;14.35;8.82;;;;;;;14.23;60.84;100854.31;5128316;27;20402;-62
2021/10/04 06:35:14;;;;;;;15.48;8.57;;;;;;;14.33;60.74;100843.47;5130283;27;20023;-62
2021/10/04 06:37:40;;;;;;;11.77;9.18;;;;;;;14.41;60.54;100847.13;5128192;27;20478;-62
2021/10/04 06:40:06;;;;;;;14.50;8.90;;;;;;;14.53;60.52;100853.22;5128981;27;20110;-62
2021/10/04 06:42:32;;;;;;;13.48;8.70;;;;;;;14.62;60.29;100850.50;5130075;27;20023;-62
2021/10/04 06:44:58;;;;;;;16.45;9.43;;;;;;;14.75;59.81;100848.31;5129401;27;20030;-62
2021/10/04 06:47:24;;;;;;;13.70;8.40;;;;;;;14.92;59.48;100857.47;5129592;27;20031;-62
2021/10/04 06:49:49;;;;;;;13.40;8.00;;;;;;;15.05;58.62;100858.81;5129534;27;20031;-61
2021/10/04 06:52:15;;;;;;;9.85;7.82;;;;;;;15.20;58.25;100851.94;5129738;27;20034;-61
2021/10/04 06:54:40;;;;;;;15.82;8.60;;;;;;;15.42;57.75;100866.91;5129036;27;20042;-62
2021/10/04 06:57:06;;;;;;;15.70;9.30;;;;;;;15.59;57.03;100863.38;5129915;27;20027;-63
2021/10/04 06:59:32;;;;;;;16.80;9.40;;;;;;;15.81;56.46;100868.31;5128588;27;20019;-62
2021/10/04 07:01:58;;;;;;;14.25;8.85;;;;;;;16.09;55.84;100869.06;5129212;27;20113;-62
2021/10/04 07:04:24;;;;;;;12.45;7.72;;;;;;;16.27;55.31;100869.88;5129605;27;20106;-63
2021/10/04 07:06:49;;;;;;;13.55;7.97;;;;;;;16.48;55.03;100865.84;5127774;27;20035;-62
2021/10/04 07:09:15;;;;;;;13.98;8.63;;;;;;;16.73;54.01;100870.41;5129248;27;20035;-62
2021/10/04 07:11:40;;;;;;;11.55;8.70;;;;;;;16.96;53.21;100878.84;5127521;27;20035;-62
2021/10/04 07:14:06;;;;;;;14.43;9.20;;;;;;;17.20;52.69;100871.66;5129569;27;20375;-62
2021/10/04 07:16:32;;;;;;;12.20;8.13;;;;;;;17.47;51.93;100876.88;5129426;27;20039;-63
2021/10/04 07:18:57;;;;;;;12.63;8.23;;;;;;;17.71;51.79;100870.66;5128654;27;20357;-62
2021/10/04 07:21:23;;;;;;;14.75;7.38;;;;;;;18.00;51.42;100876.47;5129050;27;20037;-62
2021/10/04 07:23:48;;;;;;;10.80;7.28;;;;;;;18.30;50.04;100867.63;5127490;27;20454;-62
2021/10/04 07:26:14;;;;;;;14.60;7.25;;;;;;;18.76;48.70;100874.22;5129123;27;20029;-63
2021/10/04 07:28:40;;;;;;;11.18;7.20;;;;;;;19.25;47.71;100865.69;5128661;27;20083;-63
2021/10/04 07:31:06;;;;;;;15.82;6.85;;;;;;;20.25;46.15;100870.22;5129621;27;20023;-63
2021/10/04 07:33:31;;;;;;;11.63;7.18;;;;;;;21.18;43.56;100866.88;5128836;27;20119;-62
2021/10/04 07:35:57;;;;;;;10.73;6.97;;;;;;;22.00;41.81;100855.47;5128855;27;20023;-63
2021/10/04 07:38:23;;;;;;;18.95;6.65;;;;;;;22.91;39.96;100852.66;5128944;27;20042;-63
2021/10/04 07:40:49;;;;;;;10.85;7.32;;;;;;;23.89;37.79;100832.88;5127035;27;20451;-63
2021/10/04 07:43:15;;;;;;;10.35;6.53;;;;;;;24.80;36.33;100844.97;5128755;27;20027;-64
2021/10/04 07:45:40;;;;;;;10.52;6.65;;;;;;;25.63;34.80;100837.50;5128123;27;20081;-63
2021/10/04 07:48:06;;;;;;;9.90;6.03;;;;;;;26.30;33.27;100837.72;5129190;27;20027;-63
2021/10/04 07:50:32;;;;;;;9.73;6.70;;;;;;;26.98;32.41;100841.31;5128813;27;20026;-62
2021/10/04 07:52:58;;;;;;;7.93;6.60;;;;;;;27.60;31.11;100821.69;5128446;27;20031;-63
2021/10/04 07:55:23;;;;;;;7.25;6.40;;;;;;;28.08;30.98;100824.44;5128497;27;20027;-63
2021/10/04 07:57:49;;;;;;;9.60;6.40;;;;;;;28.59;29.96;100819.13;5128233;27;20075;-63
2021/10/04 08:00:17;;;;;;;9.82;6.07;;;;;;;28.99;29.58;100828.38;5127171;27;20019;-62
2021/10/04 08:02:43;;;;;;;8.65;5.97;;;;;;;29.40;28.66;100827.34;5126783;27;20133;-62
2021/10/04 08:05:09;;;;;;;8.13;6.57;;;;;;;29.59;28.65;100829.66;5128754;27;20110;-63
2021/10/04 08:07:35;;;;;;;17.15;6.22;;;;;;;30.01;28.22;100824.69;5128384;27;20078;-63
2021/10/04 08:10:00;;;;;;;13.43;5.78;;;;;;;30.19;27.88;100818.97;5127675;27;20624;-63
2021/10/04 08:12:27;;;;;;;13.82;6.18;;;;;;;30.34;27.51;100816.47;5127040;27;20039;-63
2021/10/04 08:14:54;;;;;;;9.55;6.15;;;;;;;30.19;27.66;100807.91;5128092;27;20393;-63
2021/10/04 08:17:20;;;;;;;10.48;6.22;;;;;;;29.03;29.12;100817.66;5128572;27;20019;-63
2021/10/04 08:19:46;;;;;;;9.85;5.90;;;;;;;28.06;30.22;100821.91;5127771;27;20057;-63
2021/10/04 08:22:11;;;;;;;12.27;5.93;;;;;;;27.10;31.48;100822.97;5126953;28;20043;-63
2021/10/04 08:24:37;;;;;;;9.10;5.70;;;;;;;26.27;33.24;100820.78;5127126;28;20027;-63
2021/10/04 08:27:02;;;;;;;11.43;6.35;;;;;;;25.47;34.09;100809.69;5128188;27;20023;-63
2021/10/04 08:29:28;;;;;;;6.07;5.15;;;;;;;25.01;35.08;100825.47;5127932;27;20493;-63
2021/10/04 08:31:53;;;;;;;10.88;5.93;;;;;;;24.55;36.19;100824.69;5127830;27;20019;-63
2021/10/04 08:34:19;;;;;;;11.82;6.47;;;;;;;24.21;36.69;100832.09;5128094;27;20054;-63
2021/10/04 08:36:44;;;;;;;8.88;6.10;;;;;;;23.97;37.12;100815.41;5126575;28;20114;-62
2021/10/04 08:39:10;;;;;;;9.43;6.60;;;;;;;23.87;37.48;100824.03;5128313;27;20096;-62
2021/10/04 08:41:37;;;;;;;10.93;6.82;;;;;;;24.80;36.56;100826.59;5127882;27;20024;-63
2021/10/04 08:44:06;;;;;;;11.32;6.53;;;;;;;26.45;33.98;100818.13;5127584;27;20501;-63
2021/10/04 08:46:37;;;;;;;9.77;6.30;;;;;;;27.94;31.94;100804.50;5127978;27;20394;-63
2021/10/04 08:49:02;;;;;;;12.88;5.55;;;;;;;29.40;29.89;100796.94;5127762;27;20034;-62
2021/10/04 08:51:28;;;;;;;12.43;6.05;;;;;;;30.65;28.13;100795.63;5127977;27;20417;-64
2021/10/04 08:53:53;;;;;;;11.73;5.25;;;;;;;31.71;27.04;100796.81;5127422;27;20035;-63
2021/10/04 08:56:19;;;;;;;8.90;5.57;;;;;;;32.73;25.65;100785.53;5126371;28;20488;-63
2021/10/04 08:58:44;;;;;;;7.55;5.38;;;;;;;33.66;24.33;100785.44;5127409;27;20076;-63
2021/10/04 09:01:10;;;;;;;10.90;5.55;;;;;;;34.34;24.00;100791.38;5128185;27;20035;-63
2021/10/04 09:03:46;;;;;;;9.13;5.90;;;;;;;34.94;23.17;100789.69;5127909;28;20011;-63
2021/10/04 09:06:31;;;;;;;10.10;5.70;;;;;;;35.56;22.49;100790.00;5128142;27;20039;-63
2021/10/04 09:09:02;;;;;;;10.98;5.78;;;;;;;35.97;22.09;100794.22;5127381;27;20031;-63
2021/10/04 09:11:41;;;;;;;11.70;5.68;;;;;;;36.20;21.70;100799.91;5127838;27;20031;-63
2021/10/04 09:14:28;;;;;;;10.50;5.65;;;;;;;36.39;21.45;100784.16;5128055;27;20023;-63
2021/10/04 09:17:11;;;;;;;5.85;5.35;;;;;;;36.46;21.46;100793.03;5127868;27;20027;-64
2021/10/04 09:19:37;;;;;;;7.87;5.30;;;;;;;36.66;21.53;100792.00;5127486;27;20051;-63
2021/10/04 09:22:09;;;;;;;9.18;5.45;;;;;;;36.77;21.36;100792.75;5129157;27;20023;-61
2021/10/04 09:24:37;;;;;;;8.13;5.18;;;;;;;36.82;21.09;100775.91;5131349;27;20678;-61
2021/10/04 09:27:02;;;;;;;7.68;5.15;;;;;;;36.99;21.46;100785.50;5131345;27;20363;-61
2021/10/04 09:29:47;;;;;;;8.43;5.82;;;;;;;36.99;21.25;100782.72;5131317;27;20030;-61
2021/10/04 09:32:12;;;;;;;11.35;5.20;;;;;;;37.05;21.19;100777.88;5130439;27;20038;-61
2021/10/04 09:34:37;;;;;;;12.57;5.10;;;;;;;37.11;21.04;100776.69;5131090;27;20486;-61
2021/10/04 09:37:03;;;;;;;17.42;5.82;;;;;;;37.16;20.91;100773.81;5131179;27;20478;-61
2021/10/04 09:39:33;;;;;;;9.93;5.40;;;;;;;37.37;20.98;100778.06;5131472;27;20019;-61
2021/10/04 09:42:14;;;;;;;11.88;4.95;;;;;;;37.43;21.08;100777.69;5130902;27;20441;-61
2021/10/04 09:44:56;;;;;;;9.75;5.18;;;;;;;37.38;21.23;100763.78;5130656;27;20023;-60
2021/10/04 09:47:29;;;;;;;7.65;4.95;;;;;;;37.09;21.59;100768.59;5131079;27;20486;-61
2021/10/04 09:50:16;;;;;;;7.75;4.93;;;;;;;36.31;21.98;100767.19;5130609;27;20599;-61
2021/10/04 09:52:48;;;;;;;9.82;4.95;;;;;;;35.44;22.87;100769.97;5130521;27;20643;-60
2021/10/04 09:55:33;;;;;;;12.27;5.60;;;;;;;34.28;23.92;100766.59;5131230;27;20433;-62
2021/10/04 09:58:14;;;;;;;9.88;5.18;;;;;;;33.10;25.08;100775.19;5129271;27;20035;-61
2021/10/04 10:01:01;;;;;;;6.53;4.70;;;;;;;31.70;26.82;100767.41;5130756;27;20072;-62
2021/10/04 10:03:39;;;;;;;11.45;5.47;;;;;;;30.89;28.18;100769.41;5129158;27;20019;-61
2021/10/04 10:06:06;;;;;;;7.70;5.07;;;;;;;30.09;29.39;100780.03;5130373;27;20490;-62
2021/10/04 10:08:32;;;;;;;14.25;5.50;;;;;;;29.32;30.48;100777.97;5131137;27;20462;-62
2021/10/04 10:11:00;;;;;;;12.35;5.72;;;;;;;28.70;31.43;100774.13;5130149;27;20087;-62
2021/10/04 10:13:28;;;;;;;12.27;5.72;;;;;;;28.16;32.30;100766.16;5130285;27;20027;-62
2021/10/04 10:16:00;;;;;;;8.70;5.88;;;;;;;27.78;33.02;100766.53;5130436;27;20031;-64
2021/10/04 10:19:00;;;;;;;15.68;6.13;;;;;;;27.20;34.04;100775.59;5130378;27;20031;-64
2021/10/04 10:21:28;;;;;;;10.32;5.97;;;;;;;26.82;34.49;100773.09;5126912;27;20035;-63
2021/10/04 10:23:55;;;;;;;16.00;6.00;;;;;;;26.51;35.51;100767.69;5129822;27;20023;-63
2021/10/04 10:26:24;;;;;;;12.65;6.13;;;;;;;26.19;36.23;100766.94;5130043;27;20031;-63
2021/10/04 10:28:50;;;;;;;11.00;6.07;;;;;;;25.94;37.01;100773.44;5128510;27;20023;-63
2021/10/04 10:31:16;;;;;;;14.07;5.60;;;;;;;25.78;37.35;100772.09;5128923;27;20403;-64
2021/10/04 10:33:51;;;;;;;9.55;5.85;;;;;;;25.59;37.18;100761.22;5129755;27;20385;-63
2021/10/04 10:36:37;;;;;;;13.70;5.95;;;;;;;25.47;37.52;100763.00;5128663;27;20027;-63
2021/10/04 10:39:06;;;;;;;12.75;5.90;;;;;;;25.27;37.81;100757.56;5128294;27;20083;-64
2021/10/04 10:41:34;;;;;;;13.70;5.93;;;;;;;25.15;38.30;100774.97;5130021;27;20423;-64
2021/10/04 10:44:03;;;;;;;10.23;6.20;;;;;;;25.05;38.73;100769.09;5129782;27;20123;-63
2021/10/04 10:46:50;;;;;;;10.30;5.82;;;;;;;24.95;39.17;100763.22;5129829;27;20027;-64
2021/10/04 10:49:53;;;;;;;11.18;6.10;;;;;;;24.84;39.30;100761.13;5130176;27;20412;-64
2021/10/04 10:52:21;;;;;;;9.65;5.88;;;;;;;24.76;39.65;100764.13;5128520;27;20558;-64
2021/10/04 10:54:47;;;;;;;13.10;6.00;;;;;;;24.67;39.97;100754.44;5129425;27;20116;-63
2021/10/04 10:57:13;;;;;;;9.45;5.80;;;;;;;24.62;39.94;100765.16;5129466;27;20502;-63
2021/10/04 10:59:39;;;;;;;8.15;5.93;;;;;;;24.53;40.05;100761.00;5129561;27;20023;-63
2021/10/04 11:02:04;;;;;;;8.15;5.20;;;;;;;24.48;40.54;100759.72;5129117;27;20031;-64
2021/10/04 11:04:41;;;;;;;7.45;5.47;;;;;;;24.48;40.55;100756.13;5129470;27;20091;-67
2021/10/04 11:07:07;;;;;;;9.80;5.65;;;;;;;24.42;40.83;100749.63;5129524;27;20460;-67
2021/10/04 11:10:08;;;;;;;11.80;5.97;;;;;;;24.37;41.07;100743.91;5129355;27;20104;-66
2021/10/04 11:13:05;;;;;;;9.93;5.88;;;;;;;24.32;41.12;100753.84;5095230;27;20045;-67
2021/10/04 11:15:30;;;;;;;11.60;6.78;;;;;;;24.25;41.07;100742.88;5129135;27;20030;-66
2021/10/04 11:17:56;;;;;;;9.90;5.85;;;;;;;24.21;41.32;100741.63;5129001;27;20040;-67